Terminal Aerodrome Forecast
Issued by NWS Albany, NY

Home | Current Version | Previous Version | Text Only | Print | Product List | Glossary On
Versions: 1 2 3 4 5 6 7 8 9 10 11 12 13 14 15 16 17 18 19
000
FTUS41 KALY 222335
TAFPOU
TAF
KPOU 222335Z 2300/2324 18007KT P6SM SKC
     FM230200 21008KT 6SM -TSRA BKN070CB
      TEMPO 2302/2306 23015G30KT 1SM TSRA OVC025CB
     FM230600 21007KT 6SM BR OVC050
     FM231000 25005KT 2SM BR BKN250
     FM231200 28004KT P6SM BKN060
     FM232300 31006KT P6SM SCT040=

USA.gov is the U.S. government's official web portal to all federal, state and local government web resources and services.